createdAt,value
2023-04-02T00:01:54.660Z,3.50
2023-04-02T00:04:26.730Z,4.70
2023-04-02T00:06:54.957Z,4.38
2023-04-02T00:09:27.959Z,3.55
2023-04-02T00:11:55.860Z,5.13
2023-04-02T00:14:27.493Z,5.40
2023-04-02T00:16:55.916Z,4.32
2023-04-02T00:19:34.517Z,3.80
2023-04-02T00:22:02.105Z,3.35
2023-04-02T00:24:28.794Z,4.10
2023-04-02T00:26:55.748Z,4.25
2023-04-02T00:29:22.108Z,3.55
2023-04-02T00:31:50.295Z,3.85
2023-04-02T00:34:21.840Z,2.22
2023-04-02T00:36:49.070Z,3.05
2023-04-02T00:39:18.509Z,3.15
2023-04-02T00:41:46.738Z,3.42
2023-04-02T00:44:14.430Z,2.22
2023-04-02T00:46:48.365Z,3.58
2023-04-02T00:49:29.509Z,3.33
2023-04-02T00:52:03.321Z,2.85
2023-04-02T00:54:32.501Z,3.40
2023-04-02T00:56:59.054Z,2.75
2023-04-02T00:59:28.261Z,2.95
2023-04-02T01:02:01.687Z,3.13
2023-04-02T01:04:31.514Z,2.58
2023-04-02T01:06:58.324Z,2.38
2023-04-02T01:09:44.911Z,2.78
2023-04-02T01:12:26.335Z,3.33
2023-04-02T01:15:06.844Z,3.13
2023-04-02T01:17:33.184Z,2.35
2023-04-02T01:20:18.604Z,2.70
2023-04-02T01:22:51.020Z,3.03
2023-04-02T01:25:19.146Z,2.05
2023-04-02T01:28:09.579Z,2.95
2023-04-02T01:30:36.634Z,1.90
2023-04-02T01:33:03.417Z,2.30
2023-04-02T01:35:32.978Z,2.53
2023-04-02T01:38:04.889Z,2.50
2023-04-02T01:40:35.623Z,2.20
2023-04-02T01:43:10.981Z,2.47
2023-04-02T01:45:37.725Z,2.47
2023-04-02T01:48:13.048Z,2.78
2023-04-02T01:50:40.216Z,2.17
2023-04-02T01:53:08.320Z,2.85
2023-04-02T01:55:40.032Z,3.00
2023-04-02T01:58:07.544Z,2.60
2023-04-02T02:00:36.170Z,3.03
2023-04-02T02:03:03.343Z,2.83
2023-04-02T02:05:29.838Z,2.42
2023-04-02T02:07:57.204Z,2.30
2023-04-02T02:10:26.070Z,2.40
2023-04-02T02:12:52.569Z,2.40
2023-04-02T02:15:20.675Z,2.85
2023-04-02T02:17:47.773Z,2.78
2023-04-02T02:20:14.984Z,2.50
2023-04-02T02:22:46.039Z,2.85
2023-04-02T02:25:17.133Z,2.35
2023-04-02T02:27:46.901Z,2.75
2023-04-02T02:30:16.427Z,3.33
2023-04-02T02:32:51.018Z,2.78
2023-04-02T02:35:43.541Z,3.38
2023-04-02T02:38:28.433Z,2.88
2023-04-02T02:40:57.785Z,2.22
2023-04-02T02:43:24.706Z,2.80
2023-04-02T02:45:51.426Z,2.20
2023-04-02T02:48:19.559Z,2.38
2023-04-02T02:50:45.967Z,2.00
2023-04-02T02:53:23.047Z,2.30
2023-04-02T02:55:51.360Z,2.40
2023-04-02T02:58:23.688Z,2.22
2023-04-02T03:00:50.133Z,2.20
2023-04-02T03:03:18.284Z,1.98
2023-04-02T03:05:49.728Z,2.00
2023-04-02T03:08:26.595Z,2.42
2023-04-02T03:11:00.041Z,2.05
2023-04-02T03:13:29.221Z,2.42
2023-04-02T03:15:55.691Z,1.83
2023-04-02T03:18:22.043Z,1.60
2023-04-02T03:21:11.486Z,2.95
2023-04-02T03:23:43.819Z,2.13
2023-04-02T03:26:19.305Z,1.90
2023-04-02T03:28:47.997Z,2.05
2023-04-02T03:31:17.712Z,2.25
2023-04-02T03:33:47.050Z,2.65
2023-04-02T03:36:20.933Z,1.73
2023-04-02T03:38:52.109Z,1.85
2023-04-02T03:41:21.279Z,2.08
2023-04-02T03:43:49.751Z,1.70
2023-04-02T03:46:22.182Z,2.50
2023-04-02T03:48:51.022Z,2.03
2023-04-02T03:51:23.670Z,1.90
2023-04-02T03:53:50.174Z,2.58
2023-04-02T03:56:30.553Z,1.73
2023-04-02T03:59:16.421Z,2.30
2023-04-02T04:01:45.956Z,2.25
2023-04-02T04:04:19.221Z,1.60
2023-04-02T04:06:47.172Z,2.15
2023-04-02T04:09:29.582Z,1.73
2023-04-02T04:12:16.199Z,1.75
2023-04-02T04:14:45.435Z,1.60
2023-04-02T04:17:15.753Z,2.10
2023-04-02T04:19:55.033Z,2.05
2023-04-02T04:22:31.765Z,1.45
2023-04-02T04:24:59.075Z,2.22
2023-04-02T04:27:37.202Z,2.00
2023-04-02T04:30:14.827Z,1.70
2023-04-02T04:33:04.809Z,2.33
2023-04-02T04:35:33.937Z,2.15
2023-04-02T04:38:04.041Z,2.45
2023-04-02T04:40:33.012Z,2.35
2023-04-02T04:43:02.290Z,2.47
2023-04-02T04:45:47.288Z,1.98
2023-04-02T04:48:18.089Z,2.53
2023-04-02T04:50:52.817Z,1.73
2023-04-02T04:53:22.962Z,1.42
2023-04-02T04:55:51.826Z,2.00
2023-04-02T04:58:21.482Z,1.88
2023-04-02T05:00:54.028Z,1.70
2023-04-02T05:03:26.237Z,1.95
2023-04-02T05:05:52.796Z,1.92
2023-04-02T05:08:27.009Z,1.73
2023-04-02T05:10:59.361Z,2.05
2023-04-02T05:13:31.987Z,1.95
2023-04-02T05:16:04.484Z,1.90
2023-04-02T05:18:34.362Z,1.80
2023-04-02T05:21:13.901Z,1.73
2023-04-02T05:23:46.116Z,1.85
2023-04-02T05:26:16.320Z,2.28
2023-04-02T05:28:46.261Z,1.63
2023-04-02T05:31:17.438Z,2.05
2023-04-02T05:33:48.659Z,1.42
2023-04-02T05:36:41.700Z,1.95
2023-04-02T05:39:09.457Z,2.08
2023-04-02T05:41:38.402Z,1.48
2023-04-02T05:44:16.503Z,1.75
2023-04-02T05:46:56.183Z,1.55
2023-04-02T05:49:25.440Z,1.63
2023-04-02T05:51:55.467Z,1.77
2023-04-02T05:54:27.166Z,1.95
2023-04-02T05:57:00.395Z,1.95
2023-04-02T05:59:29.201Z,2.00
2023-04-02T06:02:00.449Z,1.27
2023-04-02T06:04:26.965Z,1.88
2023-04-02T06:06:58.097Z,1.60
2023-04-02T06:09:29.467Z,1.85
2023-04-02T06:12:10.816Z,2.35
2023-04-02T06:14:37.234Z,2.13
2023-04-02T06:17:03.642Z,1.55
2023-04-02T06:19:32.274Z,1.88
2023-04-02T06:22:00.671Z,1.70
2023-04-02T06:24:29.811Z,1.73
2023-04-02T06:26:59.853Z,1.80
2023-04-02T06:29:26.327Z,1.17
2023-04-02T06:31:56.929Z,2.00
2023-04-02T06:34:28.398Z,1.42
2023-04-02T06:36:56.030Z,1.50
2023-04-02T06:39:24.267Z,1.40
2023-04-02T06:42:01.346Z,1.25
2023-04-02T06:44:31.311Z,1.38
2023-04-02T06:46:59.602Z,1.90
2023-04-02T06:49:26.066Z,1.42
2023-04-02T06:51:54.250Z,1.95
2023-04-02T06:54:20.997Z,1.58
2023-04-02T06:56:49.061Z,1.67
2023-04-02T06:59:16.370Z,1.45
2023-04-02T07:01:51.444Z,1.60
2023-04-02T07:04:18.599Z,1.30
2023-04-02T07:06:45.050Z,1.75
2023-04-02T07:09:11.521Z,1.85
2023-04-02T07:11:37.943Z,1.52
2023-04-02T07:14:04.628Z,1.65
2023-04-02T07:16:32.624Z,1.42
2023-04-02T07:18:59.662Z,1.70
2023-04-02T07:21:26.830Z,1.42
2023-04-02T07:23:53.721Z,1.60
2023-04-02T07:26:22.237Z,1.38
2023-04-02T07:28:48.686Z,1.70
2023-04-02T07:31:16.786Z,1.45
2023-04-02T07:33:43.230Z,1.40
2023-04-02T07:36:13.463Z,1.48
2023-04-02T07:38:39.885Z,1.00
2023-04-02T07:41:06.716Z,1.60
2023-04-02T07:43:33.098Z,1.63
2023-04-02T07:46:00.057Z,1.67
2023-04-02T07:48:26.454Z,1.27
2023-04-02T07:50:53.052Z,2.10
2023-04-02T07:53:55.848Z,1.20
2023-04-02T07:56:23.595Z,0.85
2023-04-02T07:58:49.951Z,1.30
2023-04-02T08:01:26.853Z,1.10
2023-04-02T08:03:54.646Z,1.30
2023-04-02T08:06:21.276Z,1.13
2023-04-02T08:08:47.683Z,1.10
2023-04-02T08:11:14.106Z,1.20
2023-04-02T08:13:40.524Z,1.20
2023-04-02T08:16:07.422Z,1.73
2023-04-02T08:18:33.973Z,1.02
2023-04-02T08:21:00.701Z,0.95
2023-04-02T08:23:27.554Z,1.10
2023-04-02T08:25:54.024Z,0.90
2023-04-02T08:28:21.290Z,1.33
2023-04-02T08:30:51.463Z,1.42
2023-04-02T08:33:18.109Z,1.42
2023-04-02T08:35:45.603Z,1.25
2023-04-02T08:38:16.600Z,1.13
2023-04-02T08:40:44.773Z,1.02
2023-04-02T08:43:28.864Z,1.23
2023-04-02T08:46:05.667Z,2.30
2023-04-02T08:48:33.438Z,1.45
2023-04-02T08:51:00.196Z,1.15
2023-04-02T08:53:32.919Z,1.10
2023-04-02T08:56:17.681Z,1.23
2023-04-02T08:58:48.316Z,1.33
2023-04-02T09:01:21.516Z,1.30
2023-04-02T09:03:49.783Z,1.10
2023-04-02T09:06:18.192Z,1.42
2023-04-02T09:08:46.400Z,1.08
2023-04-02T09:11:18.586Z,1.23
2023-04-02T09:13:47.911Z,1.48
2023-04-02T09:16:16.422Z,1.30
2023-04-02T09:18:43.466Z,1.30
2023-04-02T09:21:30.351Z,0.93
2023-04-02T09:23:57.843Z,1.40
2023-04-02T09:26:29.313Z,0.90
2023-04-02T09:29:01.135Z,1.02
2023-04-02T09:31:45.302Z,1.27
2023-04-02T09:34:31.283Z,1.13
2023-04-02T09:37:12.612Z,1.60
2023-04-02T09:39:39.162Z,1.00
2023-04-02T09:42:07.432Z,1.08
2023-04-02T09:44:34.786Z,1.30
2023-04-02T09:47:09.084Z,0.90
2023-04-02T09:49:39.011Z,1.00
2023-04-02T09:52:08.361Z,0.75
2023-04-02T09:54:41.659Z,0.93
2023-04-02T09:57:24.067Z,0.60
2023-04-02T10:00:14.656Z,0.90
2023-04-02T10:03:00.961Z,0.90
2023-04-02T10:05:40.003Z,1.00
2023-04-02T10:08:28.183Z,0.98
2023-04-02T10:10:57.340Z,1.15
2023-04-02T10:13:23.818Z,1.33
2023-04-02T10:15:53.082Z,0.90
2023-04-02T10:18:25.409Z,1.00
2023-04-02T10:20:52.696Z,1.25
2023-04-02T10:23:19.625Z,0.95
2023-04-02T10:25:51.633Z,1.10
2023-04-02T10:28:42.464Z,1.00
2023-04-02T10:31:17.361Z,0.80
2023-04-02T10:33:47.272Z,0.93
2023-04-02T10:36:49.082Z,1.00
2023-04-02T10:39:21.449Z,0.70
2023-04-02T10:42:00.027Z,1.10
2023-04-02T10:44:38.458Z,0.75
2023-04-02T10:47:26.804Z,0.80
2023-04-02T10:49:56.043Z,1.17
2023-04-02T10:52:51.709Z,1.02
2023-04-02T10:55:21.200Z,1.20
2023-04-02T10:57:47.733Z,1.08
2023-04-02T11:00:17.121Z,0.80
2023-04-02T11:02:56.260Z,1.52
2023-04-02T11:05:26.487Z,0.60
2023-04-02T11:07:58.973Z,0.98
2023-04-02T11:10:27.589Z,1.63
2023-04-02T11:13:17.321Z,0.75
2023-04-02T11:15:44.023Z,0.90
2023-04-02T11:18:27.710Z,1.35
2023-04-02T11:21:01.867Z,1.30
2023-04-02T11:23:30.257Z,1.05
2023-04-02T11:26:15.637Z,0.98
2023-04-02T11:28:42.195Z,0.80
2023-04-02T11:31:08.620Z,1.08
2023-04-02T11:33:39.222Z,0.90
2023-04-02T11:36:31.067Z,1.08
2023-04-02T11:39:04.438Z,1.33
2023-04-02T11:42:01.077Z,0.80
2023-04-02T11:44:27.466Z,1.00
2023-04-02T11:47:13.783Z,1.20
2023-04-02T11:52:20.723Z,1.35
2023-04-02T11:54:54.694Z,0.90
2023-04-02T11:57:28.362Z,0.75
2023-04-02T12:00:01.236Z,1.10
2023-04-02T12:02:37.186Z,0.95
2023-04-02T12:05:09.913Z,0.60
2023-04-02T12:07:52.393Z,1.13
2023-04-02T12:10:22.896Z,0.80
2023-04-02T12:12:49.853Z,0.47
2023-04-02T12:15:28.739Z,1.35
2023-04-02T12:18:03.383Z,1.20
2023-04-02T12:20:30.673Z,0.93
2023-04-02T12:22:57.623Z,0.80
2023-04-02T12:25:27.497Z,1.00
2023-04-02T12:28:14.556Z,0.80
2023-04-02T12:30:41.499Z,0.90
2023-04-02T12:33:17.056Z,1.00
2023-04-02T12:35:44.035Z,1.67
2023-04-02T12:38:20.660Z,0.90
2023-04-02T12:41:16.410Z,0.90
2023-04-02T12:43:42.818Z,1.05
2023-04-02T12:46:09.333Z,0.85
2023-04-02T12:48:36.367Z,0.80
2023-04-02T12:51:03.860Z,0.70
2023-04-02T12:53:33.983Z,1.27
2023-04-02T12:56:00.533Z,1.13
2023-04-02T12:58:47.201Z,0.93
2023-04-02T13:01:15.005Z,0.98
2023-04-02T13:03:41.821Z,1.25
2023-04-02T13:06:22.578Z,1.10
2023-04-02T13:08:49.052Z,0.70
2023-04-02T13:11:15.818Z,1.13
2023-04-02T13:13:43.570Z,1.00
2023-04-02T13:16:09.979Z,1.02
2023-04-02T13:18:37.447Z,1.20
2023-04-02T13:21:23.629Z,1.17
2023-04-02T13:23:50.445Z,0.90
2023-04-02T13:26:21.920Z,1.52
2023-04-02T13:29:00.737Z,0.77
2023-04-02T13:31:28.046Z,1.10
2023-04-02T13:33:54.492Z,0.85
2023-04-02T13:36:20.972Z,1.20
2023-04-02T13:38:47.370Z,1.33
2023-04-02T13:41:27.889Z,1.45
2023-04-02T13:43:54.901Z,1.63
2023-04-02T13:46:22.473Z,0.98
2023-04-02T13:48:50.304Z,0.90
2023-04-02T13:51:21.258Z,0.80
2023-04-02T13:53:49.450Z,1.00
2023-04-02T13:56:15.834Z,0.73
2023-04-02T13:58:42.173Z,1.13
2023-04-02T14:01:09.355Z,0.85
2023-04-02T14:03:35.891Z,1.00
2023-04-02T14:06:12.004Z,0.77
2023-04-02T14:08:41.317Z,0.93
2023-04-02T14:11:17.402Z,1.20
2023-04-02T14:13:53.609Z,1.10
2023-04-02T14:16:27.939Z,1.17
2023-04-02T14:19:00.182Z,1.10
2023-04-02T14:21:34.677Z,0.85
2023-04-02T14:24:17.435Z,0.90
2023-04-02T14:27:03.579Z,1.05
2023-04-02T14:29:38.002Z,1.08
2023-04-02T14:32:13.646Z,1.17
2023-04-02T14:34:44.158Z,0.90
2023-04-02T14:37:13.971Z,1.00
2023-04-02T14:39:43.376Z,1.05
2023-04-02T14:42:13.771Z,0.93
2023-04-02T14:44:47.542Z,1.05
2023-04-02T14:47:26.147Z,1.50
2023-04-02T14:49:54.821Z,0.80
2023-04-02T14:52:22.630Z,1.00
2023-04-02T14:54:52.193Z,0.80
2023-04-02T14:57:30.846Z,0.75
2023-04-02T15:00:16.046Z,1.00
2023-04-02T15:02:45.410Z,0.85
2023-04-02T15:05:29.881Z,0.90
2023-04-02T15:08:07.622Z,0.77
2023-04-02T15:10:37.144Z,0.90
2023-04-02T15:13:06.071Z,1.25
2023-04-02T15:15:47.567Z,0.95
2023-04-02T15:18:16.217Z,0.82
2023-04-02T15:20:53.946Z,0.98
2023-04-02T15:23:29.552Z,1.08
2023-04-02T15:26:02.448Z,1.08
2023-04-02T15:28:35.044Z,0.68
2023-04-02T15:31:04.313Z,0.82
2023-04-02T15:33:33.852Z,0.82
2023-04-02T15:36:19.190Z,0.65
2023-04-02T15:38:47.558Z,0.73
2023-04-02T15:41:16.662Z,0.77
2023-04-02T15:44:01.678Z,0.68
2023-04-02T15:46:46.794Z,1.05
2023-04-02T15:49:31.331Z,1.23
2023-04-02T15:52:04.017Z,1.20
2023-04-02T15:54:42.009Z,0.50
2023-04-02T15:57:17.603Z,0.93
2023-04-02T15:59:58.855Z,0.65
2023-04-02T16:02:28.098Z,0.68
2023-04-02T16:05:12.907Z,0.77
2023-04-02T16:07:40.231Z,1.05
2023-04-02T16:10:12.665Z,0.93
2023-04-02T16:12:39.508Z,0.60
2023-04-02T16:15:17.795Z,0.65
2023-04-02T16:17:47.008Z,0.90
2023-04-02T16:20:19.893Z,1.08
2023-04-02T16:22:59.515Z,1.02
2023-04-02T16:25:29.568Z,0.63
2023-04-02T16:28:03.317Z,0.80
2023-04-02T16:30:46.641Z,0.95
2023-04-02T16:33:24.838Z,0.85
2023-04-02T16:36:00.304Z,0.63
2023-04-02T16:38:45.475Z,0.80
2023-04-02T16:41:27.531Z,0.77
2023-04-02T16:43:58.038Z,0.70
2023-04-02T16:46:43.309Z,0.80
2023-04-02T16:49:18.136Z,0.47
2023-04-02T16:51:50.985Z,0.75
2023-04-02T16:54:35.632Z,0.73
2023-04-02T16:57:16.136Z,0.65
2023-04-02T16:59:42.586Z,0.70
2023-04-02T17:02:12.061Z,0.57
2023-04-02T17:05:04.856Z,0.85
2023-04-02T17:07:37.989Z,0.70
2023-04-02T17:10:27.033Z,0.65
2023-04-02T17:13:03.044Z,0.80
2023-04-02T17:15:39.754Z,0.80
2023-04-02T17:18:20.110Z,0.60
2023-04-02T17:20:47.664Z,0.40
2023-04-02T17:23:14.828Z,0.90
2023-04-02T17:26:01.417Z,0.80
2023-04-02T17:28:36.654Z,0.50
2023-04-02T17:31:05.469Z,0.90
2023-04-02T17:33:31.807Z,0.82
2023-04-02T17:35:58.223Z,1.20
2023-04-02T17:38:43.161Z,1.08
2023-04-02T17:41:19.271Z,0.60
2023-04-02T17:44:04.262Z,0.90
2023-04-02T17:46:49.522Z,0.85
2023-04-02T17:49:28.195Z,0.60
2023-04-02T17:51:57.468Z,0.68
2023-04-02T17:54:37.176Z,0.63
2023-04-02T17:57:22.475Z,0.80
2023-04-02T17:59:48.903Z,1.00
2023-04-02T18:02:29.824Z,0.70
2023-04-02T18:05:01.982Z,0.77
2023-04-02T18:07:33.506Z,0.50
2023-04-02T18:10:18.049Z,0.80
2023-04-02T18:12:44.406Z,0.70
2023-04-02T18:15:37.326Z,0.90
2023-04-02T18:18:03.837Z,0.70
2023-04-02T18:20:36.906Z,0.70
2023-04-02T18:23:22.080Z,0.63
2023-04-02T18:26:03.842Z,1.13
2023-04-02T18:28:48.837Z,0.63
2023-04-02T18:31:33.767Z,0.60
2023-04-02T18:34:02.953Z,0.60
2023-04-02T18:36:52.321Z,0.85
2023-04-02T18:39:29.146Z,0.80
2023-04-02T18:42:13.708Z,0.70
2023-04-02T18:44:53.078Z,0.85
2023-04-02T18:47:27.354Z,0.80
2023-04-02T18:50:04.881Z,1.00
2023-04-02T18:52:31.298Z,0.80
2023-04-02T18:55:27.832Z,1.10
2023-04-02T18:58:12.828Z,0.80
2023-04-02T19:00:40.141Z,0.60
2023-04-02T19:03:20.808Z,0.77
2023-04-02T19:05:51.287Z,0.73
2023-04-02T19:08:24.379Z,0.80
2023-04-02T19:10:57.743Z,0.80
2023-04-02T19:13:24.448Z,0.60
2023-04-02T19:16:09.579Z,0.65
2023-04-02T19:18:48.251Z,0.80
2023-04-02T19:21:33.094Z,1.08
2023-04-02T19:24:06.865Z,0.90
2023-04-02T19:26:37.515Z,0.95
2023-04-02T19:29:06.863Z,0.63
2023-04-02T19:31:51.965Z,0.55
2023-04-02T19:34:39.212Z,0.80
2023-04-02T19:37:09.695Z,1.05
2023-04-02T19:39:59.543Z,0.90
2023-04-02T19:42:44.637Z,1.00
2023-04-02T19:45:23.061Z,0.90
2023-04-02T19:47:49.477Z,0.95
2023-04-02T19:50:16.192Z,1.13
2023-04-02T19:52:42.561Z,1.10
2023-04-02T19:55:09.142Z,0.82
2023-04-02T19:57:35.621Z,0.90
2023-04-02T20:00:02.421Z,0.65
2023-04-02T20:02:28.800Z,1.00
2023-04-02T20:04:56.511Z,0.85
2023-04-02T20:07:22.937Z,0.70
2023-04-02T20:09:49.349Z,0.52
2023-04-02T20:12:15.737Z,0.65
2023-04-02T20:14:42.062Z,0.52
2023-04-02T20:17:08.393Z,0.75
2023-04-02T20:19:34.724Z,0.60
2023-04-02T20:22:01.029Z,1.02
2023-04-02T20:24:27.380Z,0.85
2023-04-02T20:26:53.746Z,0.65
2023-04-02T20:29:20.043Z,0.63
2023-04-02T20:31:46.865Z,1.23
2023-04-02T20:34:13.509Z,0.77
2023-04-02T20:36:40.040Z,0.85
2023-04-02T20:39:08.177Z,1.10
2023-04-02T20:41:34.558Z,0.88
2023-04-02T20:44:01.040Z,1.00
2023-04-02T20:46:27.473Z,0.90
2023-04-02T20:48:53.789Z,1.05
2023-04-02T20:51:20.100Z,0.80
2023-04-02T20:53:46.615Z,0.77
2023-04-02T20:56:14.416Z,0.60
2023-04-02T20:58:41.493Z,0.90
2023-04-02T21:01:13.111Z,0.80
2023-04-02T21:03:40.082Z,1.10
2023-04-02T21:06:11.841Z,1.20
2023-04-02T21:08:38.332Z,0.70
2023-04-02T21:11:05.403Z,0.93
2023-04-02T21:13:32.428Z,0.73
2023-04-02T21:15:59.178Z,0.90
2023-04-02T21:18:25.772Z,0.73
2023-04-02T21:21:05.702Z,0.70
2023-04-02T21:23:32.053Z,0.90
2023-04-02T21:25:59.458Z,0.60
2023-04-02T21:28:26.166Z,0.80
2023-04-02T21:30:52.559Z,0.70
2023-04-02T21:33:18.855Z,0.70
2023-04-02T21:35:45.740Z,0.80
2023-04-02T21:38:12.334Z,0.73
2023-04-02T21:40:38.668Z,1.02
2023-04-02T21:43:04.980Z,0.80
2023-04-02T21:45:31.321Z,0.82
2023-04-02T21:47:57.706Z,0.73
2023-04-02T21:50:24.113Z,0.63
2023-04-02T21:52:50.612Z,0.70
2023-04-02T21:55:17.106Z,0.73
2023-04-02T21:57:43.617Z,0.40
2023-04-02T22:00:12.320Z,0.75
2023-04-02T22:02:38.874Z,0.88
2023-04-02T22:05:07.500Z,0.65
2023-04-02T22:07:33.883Z,1.13
2023-04-02T22:10:00.299Z,0.70
2023-04-02T22:12:26.756Z,0.68
2023-04-02T22:14:53.294Z,0.77
2023-04-02T22:17:19.717Z,0.77
2023-04-02T22:19:46.043Z,0.60
2023-04-02T22:22:12.379Z,0.73
2023-04-02T22:24:38.672Z,0.70
2023-04-02T22:27:05.296Z,0.60
2023-04-02T22:29:31.813Z,0.70
2023-04-02T22:31:58.204Z,0.80
2023-04-02T22:34:24.558Z,0.75
2023-04-02T22:36:50.902Z,0.70
2023-04-02T22:39:17.359Z,1.10
2023-04-02T22:41:43.728Z,0.70
2023-04-02T22:44:13.253Z,0.80
2023-04-02T22:46:39.691Z,0.60
2023-04-02T22:49:06.138Z,1.02
2023-04-02T22:51:32.558Z,0.90
2023-04-02T22:53:58.940Z,0.75
2023-04-02T22:56:27.596Z,0.60
2023-04-02T22:58:54.042Z,0.70
2023-04-02T23:01:25.014Z,0.73
2023-04-02T23:03:52.798Z,0.70
2023-04-02T23:06:19.193Z,0.88
2023-04-02T23:08:46.145Z,1.00
2023-04-02T23:11:14.088Z,0.60
2023-04-02T23:13:40.869Z,0.68
2023-04-02T23:16:08.568Z,0.40
2023-04-02T23:18:35.632Z,0.47
2023-04-02T23:21:02.090Z,0.90
2023-04-02T23:23:28.734Z,0.60
2023-04-02T23:26:05.642Z,0.60
2023-04-02T23:28:32.283Z,0.80
2023-04-02T23:30:58.756Z,0.50
2023-04-02T23:33:25.115Z,0.63
2023-04-02T23:35:51.534Z,0.73
2023-04-02T23:38:17.911Z,0.75
2023-04-02T23:40:44.353Z,0.70
2023-04-02T23:43:10.731Z,0.70
2023-04-02T23:45:37.125Z,0.50
2023-04-02T23:48:03.535Z,0.50
2023-04-02T23:50:29.871Z,0.63
2023-04-02T23:52:56.254Z,0.70
2023-04-02T23:55:22.590Z,0.68
2023-04-02T23:57:48.886Z,0.65
